Time;durP1;ratioP1;P1;durP2;ratioP2;P2;SDS_P1;SDS_P2;PMS_P1;PMS_P2;Temp;Humidity;BMP_temperature;BMP_pressure;BME280_temperature;BME280_humidity;BME280_pressure;Samples;Min_cycle;Max_cycle;Signal;HPM_P1;HPM_P2
2022/04/14 00:01:54;;;;;;;5.55;2.87;;;;;;;4.89;100.00;100292.22;1748245;82;21032;-69
2022/04/14 00:04:21;;;;;;;7.90;2.92;;;;;;;4.81;100.00;100290.56;1747531;82;21006;-68
2022/04/14 00:06:48;;;;;;;7.10;2.55;;;;;;;4.75;100.00;100286.70;1747725;82;21104;-69
2022/04/14 00:09:14;;;;;;;10.38;2.77;;;;;;;4.71;100.00;100294.58;1747874;82;21080;-70
2022/04/14 00:11:42;;;;;;;8.03;2.65;;;;;;;4.68;100.00;100294.17;1747764;82;21845;-69
2022/04/14 00:14:09;;;;;;;8.35;2.75;;;;;;;4.60;100.00;100289.46;1748027;82;21174;-70
2022/04/14 00:16:36;;;;;;;6.60;2.77;;;;;;;4.50;100.00;100287.84;1748026;82;21045;-74
2022/04/14 00:19:04;;;;;;;6.62;2.45;;;;;;;4.45;100.00;100287.02;1748091;82;21118;-70
2022/04/14 00:21:32;;;;;;;7.37;2.92;;;;;;;4.40;100.00;100290.98;1747769;82;21057;-69
2022/04/14 00:23:59;;;;;;;7.03;3.15;;;;;;;4.33;100.00;100285.39;1747944;82;21512;-69
2022/04/14 00:26:26;;;;;;;8.08;2.72;;;;;;;4.28;100.00;100288.05;1747983;82;21583;-69
2022/04/14 00:28:55;;;;;;;5.92;2.47;;;;;;;4.22;100.00;100292.00;1768788;80;21076;-69
2022/04/14 00:31:21;;;;;;;5.85;2.70;;;;;;;4.15;100.00;100291.63;1784757;80;21024;-69
2022/04/14 00:33:49;;;;;;;5.97;2.45;;;;;;;4.11;100.00;100293.83;1784921;80;21084;-70
2022/04/14 00:36:16;;;;;;;7.95;2.75;;;;;;;4.08;100.00;100295.16;1784737;80;21001;-70
2022/04/14 00:42:13;;;;;;;7.83;2.90;;;;;;;4.10;100.00;100303.84;1795875;79;27479;-70
2022/04/14 00:44:41;;;;;;;5.62;2.60;;;;;;;4.05;100.00;100302.98;1756693;81;21061;-70
2022/04/14 00:47:14;;;;;;;8.00;3.00;;;;;;;4.05;100.00;100308.20;1756660;81;21149;-70
2022/04/14 00:49:38;;;;;;;8.55;3.00;;;;;;;4.04;100.00;100301.27;1785748;80;21566;-69
2022/04/14 00:52:06;;;;;;;9.40;3.02;;;;;;;4.05;100.00;100302.98;1762132;80;21529;-70
2022/04/14 00:54:34;;;;;;;9.93;2.80;;;;;;;4.06;100.00;100304.73;1790826;80;21027;-69
2022/04/14 00:57:04;;;;;;;5.53;2.60;;;;;;;4.07;100.00;100301.23;1790624;80;21028;-70
2022/04/14 00:59:31;;;;;;;6.50;2.77;;;;;;;4.10;100.00;100296.02;1790817;80;21845;-70
2022/04/14 01:01:58;;;;;;;8.45;2.85;;;;;;;4.13;100.00;100302.05;1790648;80;21040;-71
2022/04/14 01:04:25;;;;;;;6.85;2.40;;;;;;;4.16;100.00;100298.55;1790923;80;21473;-69
2022/04/14 01:06:53;;;;;;;4.97;2.30;;;;;;;4.19;100.00;100299.41;1790814;80;21008;-69
2022/04/14 01:09:20;;;;;;;6.15;2.30;;;;;;;4.23;100.00;100297.63;1790859;80;21076;-70
2022/04/14 01:11:53;;;;;;;7.15;2.20;;;;;;;4.26;100.00;100300.22;1790960;80;21152;-70
2022/04/14 01:14:35;;;;;;;6.80;2.27;;;;;;;4.29;100.00;100289.76;1790882;80;21205;-69
2022/04/14 01:17:04;;;;;;;4.33;2.15;;;;;;;4.30;100.00;100291.51;1790896;80;21068;-69
2022/04/14 01:19:31;;;;;;;5.40;2.58;;;;;;;4.33;100.00;100294.08;1790931;80;21025;-70
2022/04/14 01:22:06;;;;;;;9.85;2.45;;;;;;;4.36;100.00;100293.18;1791033;80;21500;-70
2022/04/14 01:24:35;;;;;;;5.30;1.92;;;;;;;4.38;100.00;100291.42;1790226;80;21008;-69
2022/04/14 01:27:01;;;;;;;5.78;1.90;;;;;;;4.38;100.00;100294.89;1790674;80;21090;-69
2022/04/14 01:29:29;;;;;;;5.65;1.90;;;;;;;4.40;100.00;100290.53;1790944;80;21040;-70
2022/04/14 01:31:57;;;;;;;5.25;2.08;;;;;;;4.41;100.00;100289.64;1790785;80;21072;-69
2022/04/14 01:34:23;;;;;;;6.65;2.02;;;;;;;4.42;100.00;100285.31;1790908;80;21043;-70
2022/04/14 01:36:51;;;;;;;6.28;2.17;;;;;;;4.46;100.00;100291.34;1790670;80;21522;-71
2022/04/14 01:39:19;;;;;;;6.53;1.95;;;;;;;4.47;100.00;100286.58;1790807;80;21556;-69
2022/04/14 01:41:45;;;;;;;3.02;1.70;;;;;;;4.50;100.00;100288.70;1784995;80;21029;-70
2022/04/14 01:44:11;;;;;;;8.75;1.70;;;;;;;4.50;100.00;100286.53;1779702;80;21052;-69
2022/04/14 01:46:41;;;;;;;6.12;1.77;;;;;;;4.52;100.00;100291.30;1779842;80;21024;-70
2022/04/14 01:49:09;;;;;;;4.40;2.15;;;;;;;4.50;100.00;100287.84;1779560;80;21238;-70
2022/04/14 01:51:36;;;;;;;4.97;1.82;;;;;;;4.49;100.00;100296.55;1779343;80;21553;-69
2022/04/14 01:54:05;;;;;;;5.10;1.67;;;;;;;4.49;100.00;100305.69;1779032;80;21033;-70
2022/04/14 01:56:32;;;;;;;3.75;1.80;;;;;;;4.47;100.00;100312.65;1779014;80;21105;-70
2022/04/14 01:58:59;;;;;;;5.03;1.80;;;;;;;4.43;100.00;100314.86;1779114;80;21024;-70
2022/04/14 02:01:26;;;;;;;3.47;1.55;;;;;;;4.43;100.00;100319.63;1779047;80;21302;-69
2022/04/14 02:03:54;;;;;;;6.40;1.75;;;;;;;4.40;100.00;100317.05;1778847;80;21064;-69
2022/04/14 02:06:24;;;;;;;3.52;1.80;;;;;;;4.33;100.00;100325.36;1779049;80;21009;-69
2022/04/14 02:08:53;;;;;;;6.37;1.65;;;;;;;4.28;100.00;100328.45;1779258;80;21040;-70
2022/04/14 02:11:20;;;;;;;3.20;1.75;;;;;;;4.22;100.00;100332.85;1778954;80;21072;-69
2022/04/14 02:13:51;;;;;;;5.83;1.40;;;;;;;4.15;100.00;100334.63;1778902;80;21133;-70
2022/04/14 02:16:18;;;;;;;4.22;1.65;;;;;;;4.10;100.00;100332.51;1778949;80;21005;-69
2022/04/14 02:18:44;;;;;;;4.75;1.50;;;;;;;4.06;100.00;100333.40;1778944;80;21028;-69
2022/04/14 02:21:11;;;;;;;3.35;1.95;;;;;;;4.02;100.00;100334.29;1779168;80;21030;-70
2022/04/14 02:23:39;;;;;;;4.40;1.72;;;;;;;3.97;100.00;100336.48;1779019;80;21565;-69
2022/04/14 02:26:06;;;;;;;2.40;1.50;;;;;;;3.92;100.00;100336.95;1779181;80;21226;-70
2022/04/14 02:28:34;;;;;;;2.62;1.62;;;;;;;3.86;100.00;100338.29;1779240;80;21045;-69
2022/04/14 02:31:01;;;;;;;2.70;1.50;;;;;;;3.81;100.00;100334.00;1779132;80;21056;-69
2022/04/14 02:33:28;;;;;;;3.25;1.60;;;;;;;3.77;100.00;100334.44;1779225;80;21037;-70
2022/04/14 02:35:56;;;;;;;4.15;2.08;;;;;;;3.74;100.00;100335.77;1779082;80;21504;-70
2022/04/14 02:38:23;;;;;;;4.05;1.75;;;;;;;3.72;100.00;100333.61;1779122;80;21151;-69
2022/04/14 02:40:51;;;;;;;5.30;1.87;;;;;;;3.68;100.00;100337.09;1778827;80;21049;-69
2022/04/14 02:43:17;;;;;;;3.25;1.72;;;;;;;3.67;100.00;100341.89;1783330;80;21032;-69
2022/04/14 02:45:44;;;;;;;3.60;1.45;;;;;;;3.65;100.00;100335.82;1785088;80;22210;-70
2022/04/14 02:48:11;;;;;;;4.28;1.70;;;;;;;3.64;100.00;100336.27;1784704;80;21529;-70
2022/04/14 02:50:38;;;;;;;2.30;1.22;;;;;;;3.65;100.00;100344.94;1773755;80;21173;-69
2022/04/14 02:53:05;;;;;;;3.02;1.60;;;;;;;3.69;100.00;100338.84;1753573;81;21072;-68
2022/04/14 02:55:32;;;;;;;2.80;1.60;;;;;;;3.69;100.00;100341.45;1753642;81;21044;-70
2022/04/14 02:57:58;;;;;;;4.05;1.40;;;;;;;3.67;100.00;100340.14;1753815;81;21028;-68
2022/04/14 03:00:25;;;;;;;3.25;1.50;;;;;;;3.61;100.00;100336.26;1753788;81;21060;-70
2022/04/14 03:02:51;;;;;;;3.30;1.70;;;;;;;3.63;100.00;100342.77;1753738;81;21078;-70
2022/04/14 03:05:19;;;;;;;3.30;1.47;;;;;;;3.63;100.00;100344.94;1753448;81;21560;-69
2022/04/14 03:07:47;;;;;;;4.78;1.70;;;;;;;3.64;100.00;100340.62;1753598;81;21036;-71
2022/04/14 03:10:14;;;;;;;4.00;1.40;;;;;;;3.65;100.00;100337.98;1753702;81;21092;-69
2022/04/14 03:12:46;;;;;;;2.47;1.30;;;;;;;3.71;100.00;100342.31;1753760;81;21004;-69
2022/04/14 03:15:14;;;;;;;3.60;1.42;;;;;;;3.73;100.00;100347.08;1753864;81;21213;-69
2022/04/14 03:17:42;;;;;;;1.60;1.15;;;;;;;3.69;100.00;100350.13;1753943;81;21057;-69
2022/04/14 03:20:10;;;;;;;3.50;1.50;;;;;;;3.69;100.00;100351.87;1753676;81;21024;-69
2022/04/14 03:22:37;;;;;;;1.98;1.32;;;;;;;3.70;100.00;100357.49;1753969;81;21036;-70
2022/04/14 03:25:10;;;;;;;4.25;1.85;;;;;;;3.72;100.00;100353.14;1753695;81;21521;-70
2022/04/14 03:27:37;;;;;;;4.55;1.62;;;;;;;3.71;100.00;100355.33;1754099;81;21101;-70
2022/04/14 03:30:09;;;;;;;4.15;1.27;;;;;;;3.75;100.00;100352.70;1753677;81;21513;-70
2022/04/14 03:32:46;;;;;;;3.70;1.05;;;;;;;3.86;100.00;100353.92;1753848;81;21068;-71
2022/04/14 03:35:13;;;;;;;6.17;1.65;;;;;;;4.02;100.00;100355.14;1753672;81;21088;-71
2022/04/14 03:37:40;;;;;;;1.98;1.27;;;;;;;4.09;100.00;100362.03;1754093;81;20989;-70
2022/04/14 03:40:08;;;;;;;4.65;1.45;;;;;;;4.09;100.00;100358.13;1753694;81;21146;-70
2022/04/14 03:42:39;;;;;;;4.00;1.30;;;;;;;4.08;100.00;100361.63;1753166;81;21120;-70
2022/04/14 03:45:05;;;;;;;3.20;1.55;;;;;;;4.08;100.00;100368.14;1747579;82;20997;-70
2022/04/14 03:47:32;;;;;;;2.05;1.10;;;;;;;4.08;100.00;100369.44;1748208;82;21037;-69
2022/04/14 03:50:01;;;;;;;2.52;1.27;;;;;;;4.07;100.00;100374.20;1751218;80;21536;-71
2022/04/14 03:52:30;;;;;;;3.47;1.40;;;;;;;4.06;100.00;100372.49;1779114;80;21037;-70
2022/04/14 03:54:57;;;;;;;3.83;1.20;;;;;;;4.08;100.00;100382.03;1778737;80;21029;-69
2022/04/14 03:57:26;;;;;;;2.00;1.20;;;;;;;4.08;100.00;100382.03;1778972;80;21010;-70
2022/04/14 03:59:53;;;;;;;2.75;1.27;;;;;;;4.08;100.00;100385.94;1778823;80;21052;-70
2022/04/14 04:02:21;;;;;;;1.92;1.17;;;;;;;4.09;100.00;100376.37;1778864;80;21013;-70
2022/04/14 04:04:49;;;;;;;1.87;1.27;;;;;;;4.11;100.00;100378.53;1779004;80;21557;-70
2022/04/14 04:07:16;;;;;;;5.05;1.30;;;;;;;4.12;100.00;100378.98;1778912;80;21049;-70
2022/04/14 04:09:45;;;;;;;4.37;1.87;;;;;;;4.15;100.00;100375.04;1778780;80;21036;-70
2022/04/14 04:12:13;;;;;;;6.55;1.60;;;;;;;4.19;100.00;100377.61;1778760;80;21068;-69
2022/04/14 04:14:41;;;;;;;3.60;2.15;;;;;;;4.22;100.00;100376.72;1778982;80;21008;-69
2022/04/14 04:17:08;;;;;;;4.05;1.42;;;;;;;4.26;100.00;100386.26;1778931;80;21239;-70
2022/04/14 04:19:38;;;;;;;2.02;1.32;;;;;;;4.29;100.00;100384.92;1778884;80;21034;-69
2022/04/14 04:22:06;;;;;;;1.37;1.10;;;;;;;4.33;100.00;100377.52;1779177;80;21025;-69
2022/04/14 04:24:34;;;;;;;3.40;1.30;;;;;;;4.37;100.00;100374.02;1778886;80;21338;-69
2022/04/14 04:27:01;;;;;;;3.27;1.47;;;;;;;4.40;100.00;100377.89;1779021;80;21087;-70
2022/04/14 04:29:29;;;;;;;4.60;1.62;;;;;;;4.46;100.00;100373.05;1778829;80;21144;-69
2022/04/14 04:31:56;;;;;;;2.58;1.20;;;;;;;4.51;100.00;100383.44;1778793;80;21084;-70
2022/04/14 04:34:26;;;;;;;3.40;1.30;;;;;;;4.57;100.00;100387.31;1778782;80;21530;-71
2022/04/14 04:36:54;;;;;;;4.28;1.40;;;;;;;4.60;100.00;100384.25;1778845;80;20997;-69
2022/04/14 04:39:20;;;;;;;3.02;1.25;;;;;;;4.65;100.00;100386.83;1778710;80;21091;-69
2022/04/14 04:41:47;;;;;;;3.30;1.40;;;;;;;4.69;100.00;100396.33;1779039;80;21136;-71
2022/04/14 04:44:14;;;;;;;3.70;1.60;;;;;;;4.75;100.00;100396.28;1782495;80;21012;-72
2022/04/14 04:46:40;;;;;;;3.40;1.80;;;;;;;4.80;100.00;100394.49;1784973;80;21075;-70
2022/04/14 04:49:09;;;;;;;4.87;1.60;;;;;;;4.86;100.00;100397.50;1784651;80;21016;-70
2022/04/14 04:51:36;;;;;;;3.17;1.35;;;;;;;4.94;100.00;100396.11;1761198;80;21557;-69
2022/04/14 04:54:02;;;;;;;4.05;1.35;;;;;;;4.98;100.00;100395.21;1753740;81;21160;-71
2022/04/14 04:56:29;;;;;;;4.60;1.60;;;;;;;5.03;100.00;100391.66;1753507;81;21048;-70
2022/04/14 04:58:57;;;;;;;2.12;1.07;;;;;;;5.11;100.00;100399.44;1753384;81;21096;-69
2022/04/14 05:01:23;;;;;;;4.40;1.42;;;;;;;5.18;100.00;100403.70;1770951;80;21001;-69
2022/04/14 05:03:50;;;;;;;3.37;1.50;;;;;;;5.23;100.00;100400.59;1784759;80;21512;-69
2022/04/14 05:06:17;;;;;;;4.92;1.20;;;;;;;5.27;100.00;100405.36;1784626;80;21132;-70
2022/04/14 05:08:44;;;;;;;5.67;1.52;;;;;;;5.31;100.00;100407.48;1784520;80;21076;-69
2022/04/14 05:11:12;;;;;;;2.98;1.40;;;;;;;5.33;100.00;100400.50;1784461;80;20962;-70
2022/04/14 05:13:40;;;;;;;2.22;1.20;;;;;;;5.38;100.00;100409.14;1784426;80;21072;-71
2022/04/14 05:16:09;;;;;;;4.60;1.62;;;;;;;5.39;100.00;100413.50;1784582;80;21064;-70
2022/04/14 05:18:36;;;;;;;2.65;1.40;;;;;;;5.43;100.00;100411.28;1784765;80;21141;-69
2022/04/14 05:21:03;;;;;;;23.18;2.65;;;;;;;5.48;100.00;100418.62;1784593;80;21005;-71
2022/04/14 05:23:32;;;;;;;3.75;1.20;;;;;;;5.53;100.00;100414.64;1784570;80;21048;-71
2022/04/14 05:25:59;;;;;;;2.80;1.95;;;;;;;5.61;99.97;100419.32;1784659;80;21020;-70
2022/04/14 05:28:26;;;;;;;2.55;1.20;;;;;;;5.67;99.24;100424.03;1784974;80;21068;-70
2022/04/14 05:30:54;;;;;;;2.62;1.45;;;;;;;5.71;98.46;100413.56;1784792;80;20994;-70
2022/04/14 05:33:22;;;;;;;11.00;1.60;;;;;;;5.76;98.34;100415.67;1784751;80;21588;-71
2022/04/14 05:35:49;;;;;;;2.95;1.50;;;;;;;5.79;98.28;100428.23;1784971;80;21026;-70
2022/04/14 05:38:17;;;;;;;3.65;1.32;;;;;;;5.86;97.78;100429.03;1784755;80;21490;-71
2022/04/14 05:40:45;;;;;;;3.62;1.10;;;;;;;5.94;97.03;100429.84;1785183;80;21699;-70
2022/04/14 05:43:28;;;;;;;4.85;1.20;;;;;;;5.98;96.37;100436.77;1784707;80;21302;-70
2022/04/14 05:45:55;;;;;;;3.35;1.20;;;;;;;6.01;96.32;100439.33;1784827;80;20985;-69
2022/04/14 05:48:23;;;;;;;3.75;1.50;;;;;;;6.05;95.66;100427.95;1784816;80;21087;-70
2022/04/14 05:50:52;;;;;;;5.03;1.62;;;;;;;6.09;95.19;100432.23;1784748;80;21033;-72
2022/04/14 05:53:22;;;;;;;2.85;1.32;;;;;;;6.15;95.09;100433.05;1784645;80;21028;-72
2022/04/14 05:55:50;;;;;;;4.62;1.35;;;;;;;6.21;94.41;100439.48;1757551;80;21777;-71
2022/04/14 05:58:16;;;;;;;5.08;1.92;;;;;;;6.25;94.18;100437.25;1784980;80;21161;-71
2022/04/14 06:00:43;;;;;;;4.53;1.50;;;;;;;6.30;94.01;100435.42;1784809;80;21002;-70
2022/04/14 06:03:11;;;;;;;2.15;1.20;;;;;;;6.35;93.70;100436.25;1784796;80;21034;-72
2022/04/14 06:05:38;;;;;;;2.35;1.32;;;;;;;6.42;92.95;100441.80;1784829;80;21062;-71
2022/04/14 06:08:06;;;;;;;2.92;1.27;;;;;;;6.49;92.30;100439.52;1785034;80;21107;-72
2022/04/14 06:10:34;;;;;;;2.60;1.20;;;;;;;6.55;91.71;100440.30;1784675;80;21095;-71
2022/04/14 06:13:03;;;;;;;3.08;1.32;;;;;;;6.59;91.06;100434.99;1784663;80;21080;-70
2022/04/14 06:15:31;;;;;;;3.55;1.20;;;;;;;6.64;90.62;100437.53;1784637;80;21059;-69
2022/04/14 06:17:59;;;;;;;6.42;1.77;;;;;;;6.68;89.70;100445.77;1756405;80;22128;-69
2022/04/14 06:20:25;;;;;;;9.43;1.37;;;;;;;6.73;88.73;100431.70;1784679;80;21836;-69
2022/04/14 06:22:55;;;;;;;5.42;1.50;;;;;;;6.78;88.68;100444.71;1784476;80;21022;-71
2022/04/14 06:25:25;;;;;;;3.85;1.45;;;;;;;6.87;88.05;100451.11;1784628;80;21020;-70
2022/04/14 06:27:52;;;;;;;3.92;1.40;;;;;;;6.91;87.54;100446.24;1784633;80;21048;-70
2022/04/14 06:30:20;;;;;;;3.33;1.37;;;;;;;6.94;86.68;100450.11;1784825;80;21076;-70
2022/04/14 06:33:05;;;;;;;6.37;1.50;;;;;;;6.99;87.14;100438.70;1784769;80;22201;-71
2022/04/14 06:35:31;;;;;;;2.80;1.30;;;;;;;7.02;86.24;100452.62;1784341;80;21040;-70
2022/04/14 06:37:57;;;;;;;2.60;1.17;;;;;;;7.04;86.36;100445.60;1784506;80;21047;-70
2022/04/14 06:40:26;;;;;;;2.60;1.10;;;;;;;7.06;86.14;100448.17;1784361;80;20973;-71
2022/04/14 06:42:54;;;;;;;3.45;1.12;;;;;;;7.13;86.41;100444.55;1784299;80;21056;-70
2022/04/14 06:45:21;;;;;;;5.00;1.50;;;;;;;7.18;84.78;100445.36;1779554;80;21138;-71
2022/04/14 06:47:47;;;;;;;3.60;1.20;;;;;;;7.20;85.07;100455.36;1778596;80;21531;-71
2022/04/14 06:50:15;;;;;;;2.05;1.17;;;;;;;7.27;84.56;100446.92;1778566;80;21049;-70
2022/04/14 06:52:42;;;;;;;2.27;1.10;;;;;;;7.33;84.63;100462.08;1778644;80;21100;-71
2022/04/14 06:55:09;;;;;;;3.22;1.20;;;;;;;7.44;83.66;100441.39;1778570;80;21571;-70
2022/04/14 06:57:36;;;;;;;3.45;1.35;;;;;;;7.53;82.75;100451.69;1778736;80;21107;-71
2022/04/14 07:00:06;;;;;;;3.50;1.27;;;;;;;7.63;83.58;100453.22;1778888;80;21061;-70
2022/04/14 07:02:35;;;;;;;6.62;1.32;;;;;;;7.78;81.71;100454.69;1779168;80;21053;-71
2022/04/14 07:05:02;;;;;;;3.25;1.40;;;;;;;7.87;81.91;100453.64;1748959;80;21006;-71
2022/04/14 07:07:29;;;;;;;3.10;1.35;;;;;;;7.96;80.99;100449.52;1779094;80;21568;-72
2022/04/14 07:09:56;;;;;;;2.85;1.22;;;;;;;8.04;79.97;100451.97;1779034;80;21232;-70
2022/04/14 07:12:24;;;;;;;3.47;1.35;;;;;;;8.03;79.02;100467.27;1778957;80;21097;-71
2022/04/14 07:14:51;;;;;;;4.00;1.52;;;;;;;7.91;78.82;100453.97;1778938;80;21030;-72
2022/04/14 07:17:20;;;;;;;2.33;1.07;;;;;;;7.90;79.61;100448.33;1779119;80;21485;-71
2022/04/14 07:19:48;;;;;;;2.53;1.40;;;;;;;7.94;79.71;100460.48;1779228;80;21024;-71
2022/04/14 07:22:19;;;;;;;4.35;1.55;;;;;;;7.96;79.12;100458.70;1778973;80;21117;-70
2022/04/14 07:24:50;;;;;;;10.30;1.57;;;;;;;7.99;79.62;100460.79;1778858;80;21029;-70
2022/04/14 07:27:19;;;;;;;3.08;1.20;;;;;;;8.11;79.83;100462.28;1779125;80;21217;-70
2022/04/14 07:29:48;;;;;;;3.70;1.12;;;;;;;8.22;79.11;100459.89;1778964;80;21507;-71
2022/04/14 07:32:15;;;;;;;3.08;1.47;;;;;;;8.24;78.67;100454.17;1779033;80;21032;-71
2022/04/14 07:34:42;;;;;;;3.45;1.45;;;;;;;8.25;78.33;100458.05;1778786;80;21196;-71
2022/04/14 07:37:10;;;;;;;2.77;1.32;;;;;;;8.27;77.54;100452.32;1778884;80;21072;-70
2022/04/14 07:39:37;;;;;;;7.47;1.20;;;;;;;8.28;78.29;100455.38;1779240;80;21526;-71
2022/04/14 07:42:04;;;;;;;4.45;1.40;;;;;;;8.34;78.17;100451.73;1778837;80;21041;-73
2022/04/14 07:44:30;;;;;;;3.20;1.17;;;;;;;8.41;77.54;100455.98;1778790;80;21028;-72
2022/04/14 07:46:59;;;;;;;3.20;1.22;;;;;;;8.50;77.39;100447.89;1778792;80;21127;-69
2022/04/14 07:49:27;;;;;;;2.02;1.15;;;;;;;8.68;77.18;100456.24;1778816;80;21024;-69
2022/04/14 07:51:55;;;;;;;10.82;1.57;;;;;;;8.79;75.87;100446.34;1778959;80;21438;-71
2022/04/14 07:54:22;;;;;;;1.62;1.15;;;;;;;8.93;75.18;100441.60;1778932;80;21032;-70
2022/04/14 07:56:49;;;;;;;5.92;1.65;;;;;;;8.97;74.47;100449.83;1778810;80;21068;-70
2022/04/14 07:59:16;;;;;;;1.67;0.95;;;;;;;9.01;74.55;100450.13;1778901;80;21240;-71
2022/04/14 08:01:42;;;;;;;2.02;1.22;;;;;;;9.07;74.61;100456.16;1778754;80;21048;-71
2022/04/14 08:04:10;;;;;;;2.20;1.40;;;;;;;9.21;74.72;100453.57;1779016;80;21640;-72
2022/04/14 08:06:39;;;;;;;3.08;1.22;;;;;;;9.33;73.30;100448.89;1778842;80;21017;-71
2022/04/14 08:09:06;;;;;;;4.12;1.50;;;;;;;9.43;73.75;100452.56;1779117;80;21016;-73
2022/04/14 08:11:35;;;;;;;2.42;1.22;;;;;;;9.54;73.07;100454.02;1778682;80;21041;-72
2022/04/14 08:14:02;;;;;;;2.92;1.50;;;;;;;9.66;73.42;100457.61;1778928;80;21033;-70
2022/04/14 08:16:33;;;;;;;2.67;1.42;;;;;;;9.77;73.28;100450.28;1779004;80;21497;-71
2022/04/14 08:19:01;;;;;;;1.62;1.10;;;;;;;9.87;72.36;100449.59;1749386;80;21157;-70
2022/04/14 08:21:30;;;;;;;4.60;1.47;;;;;;;9.97;71.82;100455.44;1778809;80;21584;-72
2022/04/14 08:23:58;;;;;;;5.60;1.60;;;;;;;10.08;70.91;100456.84;1779254;80;21120;-71
2022/04/14 08:26:30;;;;;;;4.28;1.60;;;;;;;10.15;71.20;100455.36;1778973;80;21073;-71
2022/04/14 08:29:00;;;;;;;3.95;1.77;;;;;;;10.24;67.76;100455.93;1779307;80;21068;-70
2022/04/14 08:31:26;;;;;;;3.30;1.75;;;;;;;10.31;67.46;100452.69;1778908;80;21012;-70
2022/04/14 08:33:53;;;;;;;4.30;1.52;;;;;;;10.43;67.37;100451.45;1779026;80;21060;-72
2022/04/14 08:36:21;;;;;;;2.90;1.35;;;;;;;10.50;66.44;100455.61;1778869;80;21249;-70
2022/04/14 08:38:50;;;;;;;3.02;1.65;;;;;;;10.55;66.73;100444.47;1779177;80;21009;-70
2022/04/14 08:41:21;;;;;;;4.05;1.30;;;;;;;10.63;66.42;100451.68;1778775;80;21029;-71
2022/04/14 08:44:03;;;;;;;;;;;;;;;10.73;66.14;100440.84;1781855;80;21022;-71
2022/04/14 08:46:30;;;;;;;4.45;1.47;;;;;;;10.85;64.90;100448.34;1778975;80;20205;-72
2022/04/14 08:48:59;;;;;;;2.17;1.20;;;;;;;10.96;63.36;100447.98;1778980;80;21214;-72
2022/04/14 08:51:36;;;;;;;3.27;1.32;;;;;;;11.09;63.00;100451.48;1778773;80;21036;-71
2022/04/14 08:54:05;;;;;;;6.20;1.70;;;;;;;11.22;62.32;100451.05;1778936;80;20946;-70
2022/04/14 08:56:32;;;;;;;2.70;1.20;;;;;;;11.31;61.86;100451.58;1778924;80;21088;-72
2022/04/14 08:58:59;;;;;;;4.37;1.17;;;;;;;11.45;59.77;100444.97;1778945;80;21076;-69
2022/04/14 09:01:27;;;;;;;2.22;1.37;;;;;;;11.57;59.34;100444.98;1757298;80;21073;-72
2022/04/14 09:03:57;;;;;;;4.83;1.37;;;;;;;11.75;58.98;100444.31;1742313;82;21522;-73
2022/04/14 09:06:27;;;;;;;4.62;1.40;;;;;;;11.91;58.33;100442.85;1742564;82;21074;-72
2022/04/14 09:08:55;;;;;;;3.52;1.30;;;;;;;12.13;57.77;100436.78;1742424;82;21018;-71
2022/04/14 09:11:24;;;;;;;2.92;1.50;;;;;;;12.39;57.75;100433.95;1713828;82;21018;-70
2022/04/14 09:13:51;;;;;;;1.80;1.07;;;;;;;12.76;56.37;100435.58;1742419;82;21231;-71
2022/04/14 09:16:18;;;;;;;3.00;1.30;;;;;;;13.13;54.82;100443.30;1742573;82;21653;-72
2022/04/14 09:18:47;;;;;;;1.75;1.20;;;;;;;13.41;53.49;100437.26;1742332;82;21053;-72
2022/04/14 09:21:13;;;;;;;3.40;1.15;;;;;;;13.68;52.74;100430.80;1742674;82;21101;-71
2022/04/14 09:23:51;;;;;;;2.77;1.20;;;;;;;14.05;52.03;100439.23;1742246;82;21049;-71
2022/04/14 09:26:23;;;;;;;2.30;1.00;;;;;;;14.38;50.06;100432.82;1742392;82;21094;-71
2022/04/14 09:29:10;;;;;;;8.63;1.42;;;;;;;14.78;47.98;100432.70;1742060;82;21038;-70
2022/04/14 09:31:51;;;;;;;3.40;1.10;;;;;;;15.14;45.18;100426.02;1742627;80;21049;-71
2022/04/14 09:34:38;;;;;;;2.67;0.88;;;;;;;15.49;44.62;100421.98;1742287;82;21006;-70
2022/04/14 09:37:11;;;;;;;4.08;1.05;;;;;;;15.76;42.67;100428.11;1742412;82;21049;-71
2022/04/14 09:39:55;;;;;;;2.30;1.00;;;;;;;15.95;42.31;100422.20;1742582;82;21131;-71
2022/04/14 09:42:27;;;;;;;1.55;0.90;;;;;;;16.17;42.82;100424.99;1742290;82;21065;-71
2022/04/14 09:44:53;;;;;;;2.22;0.95;;;;;;;16.48;40.82;100417.02;1742207;82;21082;-72
2022/04/14 09:47:24;;;;;;;3.22;0.90;;;;;;;16.85;41.10;100418.06;1742235;82;21017;-72
2022/04/14 09:49:52;;;;;;;2.95;1.30;;;;;;;17.07;38.81;100415.85;1743940;80;21058;-72
2022/04/14 09:52:18;;;;;;;11.88;5.55;;;;;;;17.42;37.33;100408.88;1778999;80;21588;-72
2022/04/14 09:54:45;;;;;;;7.20;3.17;;;;;;;17.64;35.45;100415.53;1778930;80;21553;-71
2022/04/14 09:57:13;;;;;;;4.50;3.22;;;;;;;17.65;36.73;100416.78;1778983;80;21014;-71
2022/04/14 09:59:41;;;;;;;3.87;1.75;;;;;;;17.84;36.31;100426.33;1779093;80;20989;-72
2022/04/14 10:02:16;;;;;;;17.85;6.95;;;;;;;17.85;35.94;100422.69;1779204;80;21032;-71
2022/04/14 10:04:47;;;;;;;6.12;4.45;;;;;;;17.96;34.64;100417.55;1779315;80;21836;-70
2022/04/14 10:07:18;;;;;;;8.93;4.33;;;;;;;18.02;34.75;100429.16;1779145;80;21021;-72
2022/04/14 10:09:50;;;;;;;3.87;2.35;;;;;;;18.17;34.94;100426.83;1747384;80;21041;-70
2022/04/14 10:12:27;;;;;;;4.17;1.77;;;;;;;18.25;34.09;100419.70;1779310;80;21088;-72
2022/04/14 10:15:05;;;;;;;3.05;1.50;;;;;;;18.40;33.44;100423.17;1779001;80;21028;-71
2022/04/14 10:17:35;;;;;;;1.98;1.02;;;;;;;18.46;32.79;100413.44;1779332;80;21149;-71
2022/04/14 10:20:05;;;;;;;1.70;0.90;;;;;;;18.58;32.79;100423.78;1779356;80;21021;-70
2022/04/14 10:22:31;;;;;;;2.47;1.10;;;;;;;18.85;33.13;100423.80;1779446;80;20993;-72
2022/04/14 10:24:58;;;;;;;2.55;0.70;;;;;;;19.06;32.97;100418.34;1778815;80;21041;-70
2022/04/14 10:27:25;;;;;;;3.12;1.00;;;;;;;18.95;32.33;100411.53;1779160;80;21063;-71
2022/04/14 10:29:53;;;;;;;4.62;0.98;;;;;;;18.93;31.81;100405.45;1779195;80;21013;-70
2022/04/14 10:32:20;;;;;;;3.58;0.93;;;;;;;18.99;32.47;100411.71;1779039;80;21021;-71
2022/04/14 10:34:46;;;;;;;1.72;0.90;;;;;;;19.19;30.95;100412.19;1779502;80;21011;-71
2022/04/14 10:37:36;;;;;;;4.03;2.40;;;;;;;19.15;28.68;100410.19;1779050;80;21083;-70
2022/04/14 10:40:05;;;;;;;3.07;1.80;;;;;;;18.90;28.16;100408.33;1777590;80;21017;-70
2022/04/14 10:42:33;;;;;;;4.60;0.90;;;;;;;18.89;28.41;100406.64;1749477;80;21294;-70
2022/04/14 10:45:04;;;;;;;2.60;1.40;;;;;;;18.95;28.83;100404.02;1749805;80;21143;-71
2022/04/14 10:47:56;;;;;;;2.10;1.57;;;;;;;19.20;29.00;100408.55;1755445;80;21012;-71
2022/04/14 10:50:32;;;;;;;2.55;1.10;;;;;;;19.39;29.11;100407.63;1784910;80;21040;-72
2022/04/14 10:53:12;;;;;;;2.40;0.72;;;;;;;19.55;28.02;100396.73;1784871;80;21045;-71
2022/04/14 10:55:45;;;;;;;0.98;0.60;;;;;;;19.61;27.08;100394.13;1784774;80;21210;-72
2022/04/14 10:58:43;;;;;;;2.05;0.70;;;;;;;19.52;26.93;100397.45;1784872;80;21017;-70
2022/04/14 11:01:13;;;;;;;1.57;0.72;;;;;;;19.53;26.10;100397.81;1784883;80;21016;-72
2022/04/14 11:03:48;;;;;;;3.42;0.80;;;;;;;19.75;26.27;100407.39;1784699;80;21068;-70
2022/04/14 11:06:48;;;;;;;1.70;0.88;;;;;;;19.87;25.95;100409.18;1785000;80;21029;-72
2022/04/14 11:12:47;;;;;;;3.35;1.15;;;;;;;19.74;24.66;100388.79;1766909;80;21072;-71
2022/04/14 11:15:17;;;;;;;3.30;1.60;;;;;;;19.66;24.81;100408.02;1784637;80;21075;-72
2022/04/14 11:17:53;;;;;;;3.90;1.37;;;;;;;19.77;25.07;100400.13;1755579;80;21494;-70
2022/04/14 11:20:34;;;;;;;3.77;1.65;;;;;;;19.73;25.57;100396.45;1784754;80;21037;-70
2022/04/14 11:23:13;;;;;;;4.53;1.60;;;;;;;19.81;25.29;100389.60;1784838;80;21120;-71
2022/04/14 11:25:45;;;;;;;4.05;1.77;;;;;;;20.02;25.49;100389.02;1756817;80;21084;-71
2022/04/14 11:28:33;;;;;;;3.67;1.70;;;;;;;20.09;23.69;100392.95;1784520;80;20982;-71
2022/04/14 11:31:15;;;;;;;4.42;1.80;;;;;;;19.88;22.95;100394.88;1784897;80;21060;-70
2022/04/14 11:33:46;;;;;;;5.00;1.90;;;;;;;19.64;22.16;100388.56;1783740;80;21020;-71
2022/04/14 11:36:20;;;;;;;4.17;1.60;;;;;;;19.47;22.31;100394.61;1784883;80;21202;-71
2022/04/14 11:39:03;;;;;;;2.20;1.25;;;;;;;19.38;22.45;100392.59;1784594;80;21545;-71
2022/04/14 11:41:52;;;;;;;4.15;1.02;;;;;;;19.31;23.49;100392.64;1784862;80;21036;-71
2022/04/14 11:44:32;;;;;;;4.53;1.33;;;;;;;19.42;23.79;100396.76;1784963;80;20994;-70